Regional Weather Synopsis
Issued by NWS Denver/Boulder, CO

Home | Current Version | Previous Version | Text Only | Print | Product List | Glossary On
Versions: 1 2 3 4 5 6 7 8 9 10 11 12 13 14 15 16 17 18 19 20 21 22 23 24 25 26 27 28 29 30 31 32 33 34 35 36 37 38 39 40 41 42 43 44 45 46 47 48 49 50
000
NZUS99 KBOU 260127
SYNBOU

Hot-Air Balloon Forecast for Colorado
National Weather Service Denver/Boulder, Colorado
1925 MDT Saturday, May 25, 2019


* * * * * Northeast Colorado * * * * *

METAR KFNL 260056Z AUTO 13013KT 10SM CLR 22/04 A2993 RMK AO2 SLP095
       T02220044
METAR KFNL 252356Z AUTO 12008G18KT 10SM CLR 22/04 A2993 RMK AO2 SLP103
       60000 T02170044 10239 20189 58015
METAR KFNL 252256Z AUTO 13010KT 10SM BKN095 22/04 A2995 RMK AO2 RAB02E14
       SLP105 P0000 T02220039

METAR KGXY 260056Z 11013KT 10SM CLR 23/04 A2991 RMK AO2 SLP110
       T02280044
METAR KGXY 252356Z 12012KT 10SM CLR 24/04 A2992 RMK AO2 SLP115 T02440044
       10256 20206 56015
METAR KGXY 252256Z 14011KT 10SM CLR 26/04 A2994 RMK AO2 SLP119
       T02560039

METAR KLMO 260115Z AUTO 05005KT 10SM CLR 21/03 A2993 RMK AO2
       T02090033
METAR KLMO 260055Z AUTO 08006KT 10SM CLR 22/03 A2993 RMK AO2
       T02200031
METAR KLMO 260035Z AUTO 09008KT 10SM CLR 23/03 A2993 RMK AO2
       T02300028

METAR KBDU 260112Z AUTO 00000KT 10SM CLR 19/02 A2993 RMK AO2
METAR KBDU 260055Z AUTO 00000KT 10SM CLR 21/00 A2991 RMK AO2
METAR KBDU 260049Z AUTO 10003KT 10SM CLR 21/01 A2992 RMK AO2

METAR KEIK 260118Z AUTO 05004KT 10SM CLR 23/00 A2995 RMK AO2
       T02261002
METAR KEIK 260055Z AUTO 04008KT 10SM SCT120 23/01 A2996 RMK AO2
       T02300011
METAR KEIK 260100Z AUTO 06006KT 10SM SCT120 23/01 A2996 RMK AO2
       T02300012

KBJC 252327Z 2600/2624 04007KT P6SM VCSH SCT080 BKN140
     FM260300 30008KT P6SM SCT200
     FM261100 33003KT P6SM VCFG FEW012 SCT200
     FM261400 27004KT P6SM FEW015 SCT120
     FM261700 08007KT P6SM SCT250
     FM262000 15012KT P6SM SCT090 BKN180
METAR KBJC 260047Z 28003KT 10SM SCT050 23/00 A2995
METAR KBJC 252347Z 10003KT 10SM SCT050 23/M01 A2995
SPECI KBJC 252320Z 27008KT 10SM SCT050 23/00 A2995

KDEN 252327Z 2600/2706 14012G20KT P6SM VCSH FEW080 SCT120
     FM260100 14012KT P6SM VCSH SCT080 BKN140
     FM260400 09010KT P6SM FEW090 SCT150
     FM260700 22006KT P6SM SCT200
     FM261100 30006KT P6SM VCFG FEW012
     FM261400 22004KT P6SM FEW015 SCT120
     FM261700 15009KT P6SM SCT250
     FM262000 15017G25KT P6SM SCT090 BKN180
     FM270100 18015KT P6SM SCT090 BKN180
METAR KDEN 260053Z 13010KT 10SM BKN100 BKN150 BKN220 20/04 A2993 RMK AO2
       SLP080 T02000044
METAR KDEN 252353Z 13011KT 10SM FEW110 SCT150 SCT220 22/03 A2992 RMK AO2
       SLP080 T02220028 10233 20189 56015
METAR KDEN 252253Z 15014G21KT 10SM FEW080 SCT120 SCT220 22/02 A2993 RMK
       AO2 PK WND 14028/2238 SLP084 T02220022

METAR KFTG 260052Z 00000KT 10SM BKN110 22/02 A2995
METAR KFTG 252258Z 15011G22KT 10SM SCT150 24/03 A2996

KBKF 260100Z 2601/2707 15009KT 9999 SCT100 QNH2994INS
      BECMG 2605/2606 20006KT 9999 FEW100 QNH2999INS
      BECMG 2614/2615 15012KT 9999 FEW250 QNH2993INS
      BECMG 2617/2618 17015G25KT 9999 FEW090 QNH2975INS
      TEMPO 2621/2701 17025G35KT VCTS SCT090CB
      BECMG 2703/2704 19009KT 8000 -SHRA BKN090 QNH2977INS
      TX26/2621Z TN07/2612Z
METAR KBKF 260058Z 00000KT 10SM FEW060 BKN095 BKN200 21/05 A2995 RMK
       AO2A SLP091 T02100053
METAR KBKF 252358Z 14008KT 10SM FEW060 BKN100 BKN200 21/03 A2994 RMK
       AO2A SLP091 T02120034 10237 20189 57007

KAPA 252327Z 2600/2624 18012G20KT P6SM VCSH SCT090 BKN140
     FM260100 18012KT P6SM SCT080 BKN140
     FM260400 06008KT P6SM FEW090 SCT140
     FM260800 21006KT P6SM SCT250
     FM261700 15009KT P6SM SCT250
     FM262000 15017G25KT P6SM SCT090 BKN180
METAR KAPA 260053Z VRB04KT 10SM SCT100 SCT130 22/02 A2995 RMK AO2 SLP097
       VIRGA DSNT N T02170017
METAR KAPA 252353Z VRB05KT 10SM SCT100 BKN120 21/03 A2995 RMK AO2 SLP105
        VIRGA VC NW T02110028 10233 20194 56006
METAR KAPA 252253Z 19010G19KT 10SM FEW100 SCT120 22/01 A2995 RMK AO2
       SLP100 VIRGA DSNT SW T02220011

METAR KMNH 260112Z AUTO 10SM CLR 16/00 A3004 RMK AO2
METAR KMNH 260048Z AUTO 10SM CLR 17/00 A3003 RMK AO2
METAR KMNH 260054Z AUTO 10SM CLR 17/00 A3003 RMK AO2

METAR KFMM 260115Z AUTO 11008KT 10SM 19/03 A2993 RMK AO2 T01940030
METAR KFMM 260055Z AUTO 13009KT 10SM 21/03 A2993 RMK AO2 T02060027
METAR KFMM 260035Z AUTO 13007KT 10SM 23/02 A2993 RMK AO2 T02340015

METAR KSTK 260120Z AUTO 12011G17KT 10SM CLR 22/06 A2992 RMK AO2
METAR KSTK 260100Z AUTO 12011G15KT 10SM CLR 23/06 A2992 RMK AO2
METAR KSTK 260040Z AUTO 11009KT 10SM SCT100 22/05 A2991 RMK AO2

METAR KAKO 260053Z AUTO 11017G27KT 10SM CLR 21/07 A2995 RMK AO2 PK WND
       12027/0047 SLP101 T02110067
METAR KAKO 252353Z AUTO 13015G23KT 10SM CLR 23/06 A2995 RMK AO2 SLP105
       T02280056 10239 20200 56014
METAR KAKO 252253Z AUTO 15012G17KT 10SM CLR 24/05 A2997 RMK AO2 SLP108
       T02390050

METAR KLIC 260055Z AUTO 12013G21KT 10SM CLR 21/06 A2996 RMK AO2 SLP092
       T02060056
METAR KLIC 252355Z AUTO 14013KT 10SM CLR 22/02 A2995 RMK AO2 SLP093
       T02170022 10222 20189 58017
METAR KLIC 252255Z AUTO 16017G21KT 10SM CLR 22/03 A2999 RMK AO2 SLP098
       T02220028

METAR KHEQ 260110Z AUTO 12015KT 10SM CLR 23/08 A2996 RMK AO2
METAR KHEQ 260055Z AUTO 12016KT 10SM CLR 23/07 A2996 RMK AO2
METAR KHEQ 260045Z AUTO 11015G19KT 10SM CLR 23/07 A2996 RMK AO2

METAR K2V6 260114Z AUTO 10016G22KT 10SM CLR 20/07 A2995 RMK AO2
METAR K2V6 260059Z AUTO 09016KT 10SM CLR 20/07 A2995 RMK AO2
METAR K2V6 260049Z AUTO 09018G21KT 10SM CLR 21/07 A2995 RMK AO2

METAR K2V5 260115Z AUTO 10014KT 10SM CLR 22/08 A2995 RMK AO2
METAR K2V5 260055Z AUTO 10011G16KT 10SM CLR 22/08 A2995 RMK AO2
METAR K2V5 260035Z AUTO 10016G20KT 10SM CLR 23/07 A2995 RMK AO2

METAR KITR 260053Z AUTO 11015KT 10SM CLR 22/12 A2993 RMK AO2 SLP098
       T02170122
METAR KITR 252353Z AUTO 11011KT 10SM CLR 24/12 A2994 RMK AO2 SLP100
       T02390117 10256 20222 58011
METAR KITR 252253Z AUTO 12015KT 10SM CLR 25/08 A2996 RMK AO2 SLP105
       T02500083

Sunrise/Sunset for 05/25/2019
Fort Collins - 05:35:33 MDT / 20:18:53 MDT
Denver       - 05:37:30 MDT / 20:16:05 MDT
Sterling     - 05:27:52 MDT / 20:11:45 MDT

Denver/Boulder (KFTG) 05/26/19 01:15 UTC
Radar VAD winds      Height      Dir/Spd(kt)
                  22000 FT MSL...225/035
                  20000 FT MSL...229/034
                  19000 FT MSL...232/033
                  18000 FT MSL...229/031
                  17000 FT MSL...227/026
                  16800 FT MSL...228/025
                  16000 FT MSL...238/022
                  15000 FT MSL...228/018
                  14600 FT MSL...229/018
                  14000 FT MSL...227/016
                  13000 FT MSL...237/013
                  12700 FT MSL...237/015
                  12000 FT MSL...181/018
                  11200 FT MSL...161/021
                  11000 FT MSL...158/022
                  10000 FT MSL...162/021
                  10000 FT MSL...158/020
                   9000 FT MSL...157/022
                   8900 FT MSL...155/022
                   8100 FT MSL...153/021
                   8000 FT MSL...152/022
                   7300 FT MSL...151/023
                   7000 FT MSL...150/022
                   6600 FT MSL...146/023
                   6200 FT MSL...136/022
                   6000 FT MSL...130/020
                   5900 FT MSL...123/022

Denver/Boulder Aviation Discussion
Issued at 2018 UTC Saturday, May 25, 2019

.AVIATION...(For the 18Z TAFS through 18Z Sunday afternoon)
Issued at 215 PM MDT Sat May 25 2019
There is the potential for isolated thunderstorms, but these are
expected to remain north of the terminals at this time, so will
not be mentioned in the TAFs. Some high resolution models
indicate some convective activity between 22-00z, however
ceilings/vis should remain above ILS. Southeast winds will
continue with gusts 20-25 kts this afternoon. A cyclone will
remain around the KDEN overnight, with moisture increasing over
the plains. Areas of fog are expected to advect in as well, but it
will depend on the wind direction on whether it will impact the
terminals. Best chance will be at KDEN and KBJC, after 10z, but
should be short-lived as drier southwest flow is expected to push
off the Palmer Divide early in the morning. Another day of strong
southeast winds are expected Sunday early on before the
cyclone/dryline pushes east. Isolated thunder possible for the
terminals Sunday afternoon.


* * * * * Southeast Colorado * * * * *

METAR K4BM 260112Z AUTO 20005G16KT 10SM CLR 08/M08 A3028 RMK AO2 LTG
       DSNT NW
METAR K4BM 260050Z AUTO 23010G16KT 10SM SCT046 SCT080 BKN085 08/M07
       A3028 RMK AO2 LTG DSNT NW
METAR K4BM 260056Z AUTO 22010G15KT 190V250 10SM SCT046 SCT070 BKN110
       08/M07 A3028 RMK AO2 LTG DSNT NW

METAR KAFF 260058Z AUTO 17011KT 10SM CLR 20/01 A2998 RMK AO2 SLP094
       T01950005
METAR KAFF 252358Z AUTO 14014G21KT 10SM CLR 20/00 A2998 RMK AO2 SLP105
       T02031004 10211 20172 57014

KCOS 260001Z 2600/2624 16011KT P6SM SCT100 SCT250
     FM260300 12009KT P6SM FEW100 SCT250
     FM260700 01007KT P6SM SCT010
     FM261500 16006KT P6SM SCT200
     FM261800 18015G25KT P6SM FEW110 SCT200
METAR KCOS 260054Z 18009KT 10SM FEW090 FEW150 21/M01 A2999 RMK AO2
       SLP088 T02111006
METAR KCOS 252354Z 15012KT 10SM FEW090 FEW150 22/01 A2998 RMK AO2 SLP092
       T02220006 10222 20178 56021
METAR KCOS 252254Z 17010G18KT 10SM FEW090 FEW220 22/00 A3000 RMK AO2
       SLP097 T02170000


METAR KFLY 260115Z AUTO 14010KT 10SM CLR 19/00 A3004 RMK AO2
       T01871003
METAR KFLY 260055Z AUTO 15009KT 10SM CLR 20/M02 A3004 RMK AO2
       T01951019
METAR KFLY 260035Z AUTO 15010G16KT 10SM CLR 20/M03 A3004 RMK AO2
       T01981035

KFCS 260008Z 2600/2703 14012KT 9999 FEW150 QNH2997INS
     BECMG 2605/2606 16009KT 9999 BKN030 QNH2999INS
     BECMG 2609/2610 VRB06KT 8000 BR BKN015 QNH3001INS
     BECMG 2617/2618 17010G15KT 9999 NSW FEW150 FEW250 QNH2986INS
     BECMG 2621/2622 24012G20KT 9999 SCT080 BKN150 QNH2985INS
     TX23/2600Z TN07/2612Z
METAR KFCS 260058Z AUTO 18004KT 10SM CLR 21/02 A2995 RMK AO2 SLP109
       T02140016 $
METAR KFCS 252358Z AUTO 14008KT 10SM CLR 22/01 A2995 RMK AO2 SLP113
       T02230007 10226 20179 57018 $

KPUB 252343Z 2600/2624 09011KT P6SM FEW120 SCT250
     FM260400 VRB06KT P6SM SCT120
     FM260800 VRB06KT P6SM SCT010 SCT120
     FM261600 11007KT P6SM FEW080
     FM262000 14015G25KT P6SM FEW110 BKN180
METAR KPUB 260053Z 12010KT 10SM CLR 26/05 A2987 RMK AO2 SLP069 T02560050
METAR KPUB 252353Z 12011G15KT 10SM CLR 26/04 A2988 RMK AO2 SLP071
       T02610039 10267 20206 56020
METAR KPUB 252253Z 11009G16KT 090V160 10SM CLR 26/03 A2989 RMK AO2
       SLP077 T02610028


METAR KTAD 260054Z AUTO 04014KT 10SM CLR 24/06 A2992 RMK AO2 SLP070
       T02390061
METAR KTAD 252354Z AUTO 02013KT 10SM CLR 23/04 A2991 RMK AO2 SLP074
       T02330044 10261 20217 55005
METAR KTAD 252254Z AUTO 02015G23KT 10SM CLR 25/03 A2991 RMK AO2 PK WND
       04027/2206 SLP068 T02500033

METAR KLHX 260053Z AUTO 12022G28KT 10SM CLR 24/11 A2986 RMK AO2 PK WND
       12031/0040 SLP068 T02390106 TSNO
METAR KLHX 252353Z AUTO 11016G27KT 10SM CLR 27/06 A2986 RMK AO2 PK WND
       08027/2344 SLP068 T02670056 10283 20233 56016 TSNO
METAR KLHX 252253Z AUTO 09014G25KT 10SM CLR 28/05 A2987 RMK AO2 SLP068
       T02780050 TSNO

METAR KLAA 260053Z AUTO 11014G21KT 10SM CLR 22/11 A2987 RMK AO2 SLP084
       T02170106
METAR KLAA 252353Z AUTO 13017KT 10SM FEW100 26/11 A2985 RMK AO2 SLP078
       T02560106 10283 20228 56012
METAR KLAA 252253Z AUTO 11014G20KT 10SM CLR 28/06 A2986 RMK AO2 SLP078
       T02780056

METAR KSPD 260056Z AUTO 15012KT 19/13 A2991 RMK AO1 SLP084 T01890133
METAR KSPD 252356Z AUTO 17014KT 19/14 A2991 RMK AO1 SLP090 60022
       T01940139 10250 20133 58009
METAR KSPD 252256Z AUTO 11008KT 16/13 A2993 RMK AO1 SLP100 P0014
       T01610133

Sunrise/Sunset for 05/25/2019
Burlington - 05:27:56 MDT / 20:04:08 MDT
Pueblo     - 05:40:11 MDT / 20:10:40 MDT
Lamar      - 05:32:40 MDT / 20:02:10 MDT

Pueblo (KPUX) 05/26/19 01:19 UTC
Radar VAD winds      Height      Dir/Spd(kt)
                  10000 FT MSL...114/014
                   9700 FT MSL...128/018
                   9000 FT MSL...125/020
                   8700 FT MSL...124/020
                   8000 FT MSL...121/022
                   7800 FT MSL...124/021
                   7100 FT MSL...124/022
                   7000 FT MSL...119/023
                   6400 FT MSL...124/021
                   6000 FT MSL...122/025
                   5900 FT MSL...120/025
                   5700 FT MSL...118/024

Pueblo Aviation Discussion
Issued at 2116 UTC Saturday, May 25, 2019

.AVIATION...(For the 00Z TAFS through 00Z Sunday evening)
Issued at 316 PM MDT Sat May 25 2019
Quiet weather expected across the terminals through Sunday
evening, with VFR conditions expected and no precipitation. High
resolution models develop some fog along the east side of the
Palmer Divide, and early runs brought the fog into the COS metro
area, perhaps as far west as the airport. However, recent trends
have backed off so will remove the TEMPO group for fog. Evening
shifts will watch the trends, especially if convection to the east
can send a gustfront west up the slope of the Palmer Divide which
would increase the coverage and westward push of any fog that
develops. Otherwise expect drainage winds through mid morning and
no aviation impacts. By Sunday afternoon southeast to south winds
will once again increase at PUB and COS, gusting 20-25 kts. At
ALS expect similar afternoon winds as Saturday, with southwest
winds gusting 25 kts or so.


* * * * * Northwest Colorado * * * * *

METAR KCAG 260053Z AUTO 23016G23KT 10SM CLR 19/M07 A2994 RMK AO2 SLP098
       T01941067
METAR KCAG 252353Z AUTO 23017G24KT 10SM CLR 21/M06 A2994 RMK AO2 SLP100
       T02061056 10211 20161 56011
METAR KCAG 252253Z AUTO 22017G25KT 10SM CLR 21/M05 A2995 RMK AO2 PK WND
       21029/2158 SLP101 T02111050

METAR KHDN 260056Z AUTO 24007KT 10SM CLR 19/M05 A2997 RMK AO2 SLP104
       T01891050
METAR KHDN 252356Z AUTO 23009KT 10SM FEW120 20/M05 A2997 RMK AO2 SLP104
       T02001050 10200 20144 56009
METAR KHDN 252256Z AUTO 23011KT 10SM SCT120 20/M06 A2998 RMK AO2 SLP109
       T02001056

METAR KSBS 260115Z AUTO 24007KT 10SM CLR 17/M03 A2998 RMK AO1
       T01721035
METAR KSBS 260055Z AUTO 24009KT 10SM CLR 19/M04 A2998 RMK AO1
       T01861042
METAR KSBS 260035Z AUTO 20009KT 10SM CLR 19/M05 A2997 RMK AO1
       T01881055


METAR K33V 260115Z AUTO 26010G19KT 10SM CLR 16/M10 A3006 RMK AO1
METAR K33V 260055Z AUTO 25014G21KT 10SM CLR 16/M10 A3005 RMK AO1
METAR K33V 260035Z AUTO 25017G21KT 10SM SCT110 16/M10 A3005 RMK AO1

METAR KEEO 260053Z AUTO 20015G29KT 10SM CLR 19/M13 A2996 RMK AO2 PK WND
       20029/0049 SLP092 T01891133
METAR KEEO 252353Z AUTO 21014G24KT 10SM CLR 20/M12 A2996 RMK AO2 PK WND
       22031/2316 SLP097 T02001122 10206 20161 55007
METAR KEEO 252253Z AUTO 22017G25KT 10SM CLR 21/M11 A2995 RMK AO2 PK WND
       17029/2239 SLP091 T02061106

METAR K20V 260112Z AUTO 27008KT 10SM SCT110 18/M03 A3001 RMK AO2
METAR K20V 260053Z AUTO 25006KT 10SM SCT120 18/M02 A3001 RMK AO2
METAR K20V 260047Z AUTO 25005KT 10SM SCT120 18/M03 A3001 RMK AO2

METAR KGNB 260105Z AUTO 35003KT 10SM CLR 13/M02 A3008 RMK AO2
       T01281017
METAR KGNB 260045Z AUTO 00000KT 10SM SCT110 14/M04 A3008 RMK AO2
       T01351039
METAR KGNB 260025Z AUTO 17005G19KT 10SM SCT070 SCT080 14/M05 A3009 RMK
       AO2 T01361047

METAR K0CO 260123Z AUTO 08012G22KT 031V161 SCT042 SCT050 OVC070 00/M05
       A3030 RMK AO2 PWINO
METAR K0CO 260106Z AUTO 10018G28KT SCT038 BKN047 OVC070 00/M04 A3030 RMK
       AO2 PWINO
METAR K0CO 260100Z AUTO 07014G26KT 021V091 SCT038 BKN047 OVC070 01/M03
       A3030 RMK AO2 LTG DSNT W PWINO

KGJT 252322Z 2600/2624 19014G26KT P6SM FEW110
     FM260200 23011KT P6SM SKC
     FM260400 07005KT P6SM FEW250
     FM260600 13009KT P6SM FEW250
     FM261800 19013G21KT P6SM FEW250
METAR KGJT 260053Z 21012KT 10SM CLR 24/M07 A2988 RMK AO2 SLP067
       T02391072
METAR KGJT 252353Z 23015G25KT 10SM CLR 24/M09 A2988 RMK AO2 PK WND
       19032/2254 SLP074 T02391089 10250 20194 58008
METAR KGJT 252253Z 19016G29KT 10SM CLR 25/M12 A2990 RMK AO2 PK WND
       21030/2211 SLP075 T02501117

KRIL 252322Z 2600/2624 27012G23KT P6SM FEW120
     FM260300 20009KT P6SM FEW250
     FM260500 13005KT P6SM FEW250
     FM261700 25008KT P6SM SCT250
     FM261900 21013G21KT P6SM SCT200
METAR KRIL 260053Z AUTO 26017G26KT 10SM CLR 22/M08 A2991 RMK AO2 PK
        WND 27027/0011 SLP085 T02171078
METAR KRIL 252353Z AUTO 26018G28KT 10SM CLR 23/M06 A2990 RMK AO2 PK WND
       26030/2342 SLP086 T02281061 10239 20183 56010
METAR KRIL 252253Z AUTO 27010G22KT 10SM CLR 23/M05 A2991 RMK AO2 PK WND
       28028/2220 SLP083 T02331050

METAR K5SM 260111Z AUTO 22007KT 10SM CLR 06/M07 A3024 RMK AO2
METAR K5SM 260049Z AUTO 22009G16KT 180V010 10SM CLR 06/M07 A3023 RMK
       AO2
METAR K5SM 260030Z AUTO 22010G20KT 080V260 10SM CLR 07/M06 A3023 RMK
       AO2

KEGE 252322Z 2600/2624 24009KT P6SM SCT100
     FM260700 12005KT P6SM FEW250
     FM261700 24007KT P6SM FEW250
     FM261900 22014KT P6SM SCT200
METAR KEGE 260056Z 25011KT 10SM CLR 21/M06 A2997 RMK AO2 SLP121
       T02061056
METAR KEGE 252356Z 25013G21KT 10SM CLR 21/M06 A2997 RMK AO2 SLP121
       T02111056 10222 20167 55006
METAR KEGE 252256Z VRB04KT 10SM CLR 21/M06 A2997 RMK AO2 SLP121
       T02061056

KASE 252322Z 2600/2624 23011G20KT P6SM SCT110
     FM260200 21007KT P6SM SCT200
     FM261400 14006KT P6SM FEW250
     FM261700 20016G23KT P6SM SCT250
     FM261900 19016G23KT P6SM BKN250
METAR KASE 260053Z AUTO VRB05G15KT 10SM CLR 18/M07 A3003 RMK AO2 SLP082
        T01781072
METAR KASE 252353Z 24007G15KT 10SM CLR 18/M07 A3002 RMK AO2 SLP085
        T01831067 10194 20156 55000
METAR KASE 252253Z 23008G20KT 10SM CLR 19/M07 A3002 RMK AO2 SLP080
       T01891067

METAR KCCU 260112Z AUTO 21007G15KT 170V240 10SM SCT080 BKN090 07/M11
       A3028 RMK AO2
METAR KCCU 260057Z AUTO 15010G20KT 10SM SCT070 OVC090 08/M11 A3028 RMK
       AO2
METAR KCCU 260051Z AUTO 15013G17KT 10SM OVC090 08/M10 A3028 RMK AO2 LTG
       DSNT NW

METAR KLXV 260053Z AUTO 20010G22KT 10SM OVC110 13/M11 A3014 RMK AO2 PK
       WND 20029/0040 SLP095 T01281111 $
METAR KLXV 252353Z AUTO 19019G28KT 160V230 10SM BKN110 14/M09 A3013 RMK
       AO2 PK WND 21032/2326 SLP090 T01391094 10144 20094 56004
       $
METAR KLXV 252253Z AUTO 21011G21KT 10SM BKN110 12/M11 A3013 RMK AO2 PK
       WND 20028/2226 SLP101 T01221106 $

Sunrise/Sunset for 05/25/2019
Rangely           - 05:51:45 MDT / 20:32:22 MDT
Grand Junction    - 05:53:40 MDT / 20:28:39 MDT
Steamboat Springs - 05:42:48 MDT / 20:25:40 MDT

Grand Junction (KGJX) 05/26/19 01:15 UTC
Radar VAD winds      Height      Dir/Spd(kt)
                  10400 FT MSL...214/017

Grand Junction Aviation Discussion
Issued at 2332 UTC Saturday, May 25, 2019

.AVIATION...(For the 00Z TAFS through 00Z Sunday evening)
Issued at 532 PM MDT Sat May 25 2019
VFR conditions expected the next 24 hours with limited moisture
for making lower cloud decks. The main concern will be gusty
southerly winds that will be developing ahead of the next
approaching storm system to the West. Areas of LLWS are likely
along with ridgetop and mountain wave turbulence. As heating takes
place on Sunday expect most TAF sites to see gusts over 25 mph in
the afternoon.


* * * * * Southwest Colorado * * * * *


KMTJ 252322Z 2600/2624 23015G25KT P6SM SCT120
     FM260200 24007KT P6SM FEW250
     FM260400 15008KT P6SM FEW250
     FM261800 20016G24KT P6SM SCT250
METAR KMTJ 260053Z AUTO 23012G24KT 10SM CLR 23/M07 A2993 RMK AO2 SLP077
       T02281072
METAR KMTJ 252353Z AUTO 23012G17KT 10SM CLR 24/M07 A2992 RMK AO2 SLP078
       T02391067 10244 20178 57006
METAR KMTJ 252253Z AUTO 23015G25KT 10SM CLR 24/M08 A2993 RMK AO2 PK WND
       24029/2212 SLP081 T02391083

METAR KGUC 260056Z AUTO 22011G20KT 10SM CLR 18/M09 A3004 RMK AO2 SLP133
       T01781094
METAR KGUC 252356Z AUTO 23013G17KT 10SM CLR 19/M09 A3003 RMK AO2 SLP132
       6//// T01891094 10200 20161 55001
METAR KGUC 252256Z AUTO 23012G21KT 10SM CLR 19/M10 A3003 RMK AO2 SLP125
       T01941100

METAR K7BM 260106Z AUTO 22013G20KT 10SM BKN095 BKN120 13/M16 A3017 RMK
       AO2
METAR K7BM 260042Z AUTO 18011G18KT 080V200 10SM BKN100 14/M17 A3016 RMK
       AO2
METAR K7BM 260048Z AUTO 16012G17KT 10SM BKN095 BKN110 14/M17 A3016 RMK
       AO2

METAR KAEJ 260115Z AUTO 22010G19KT 10SM CLR 18/M12 A3005 RMK AO2
       T01801125
METAR KAEJ 260055Z AUTO 21013G19KT 10SM CLR 19/M13 A3005 RMK AO2
       T01861126
METAR KAEJ 260035Z AUTO 21009KT 10SM CLR 19/M13 A3004 RMK AO2
       T01901128

METAR KANK 260135Z AUTO 20012G20KT 10SM SCT120 20/M12 A3010 RMK AO1
        T02001123
METAR KANK 260115Z AUTO 23008KT 10SM CLR 20/M11 A3009 RMK AO1
       T02011115
METAR KANK 260055Z AUTO 21009G17KT 10SM CLR 21/M13 A3009 RMK AO1 T02051127

METAR KMYP 260111Z AUTO 10SM OVC090 06/M10 A3038 RMK AO2
METAR KMYP 260056Z AUTO 10SM OVC090 06/M10 A3038 RMK AO2
METAR KMYP 260050Z AUTO 10SM OVC100 06/M10 A3038 RMK AO2

METAR KAIB 260115Z AUTO 24007G10KT 10SM CLR 21/M07 A2998 RMK AO2
METAR KAIB 260055Z AUTO 23011G17KT 10SM CLR 21/M07 A2997 RMK AO2
METAR KAIB 260035Z AUTO 23009G14KT 10SM CLR 21/M07 A2998 RMK AO2

KTEX 252322Z 2600/2624 21014G17KT P6SM SCT090
     FM260300 15004KT P6SM SCT250 WS020/19035KT
     FM261000 15008KT P6SM SKC WS020/19035KT
     FM261600 15020G35KT P6SM SCT150
METAR KTEX 260115Z AUTO 15011G17KT 10SM CLR 13/M10 A3013 RMK AO2
METAR KTEX 260055Z AUTO 16014G19KT 10SM CLR 13/M11 A3013 RMK AO2
METAR KTEX 260035Z AUTO 15012G16KT 10SM SCT110 14/M09 A3014 RMK AO2 LTG
       DSNT NW

METAR K04V 260118Z AUTO 00000KT 10SM SCT120 19/M08 A3006 RMK AO2
METAR K04V 260054Z AUTO 00000KT 10SM SCT120 19/M08 A3006 RMK AO2
METAR K04V 260100Z AUTO 00000KT 10SM SCT120 20/M07 A3006 RMK AO2

METAR KCEZ 260053Z AUTO 24005KT 10SM CLR 22/M02 A2994 RMK AO2 SLP092
       T02171017
METAR KCEZ 252353Z AUTO 24008KT 10SM CLR 22/M03 A2995 RMK AO2 SLP098
       T02221028 10233 20194 56014
METAR KCEZ 252253Z AUTO 24010G16KT 210V270 10SM CLR 22/M04 A2997 RMK AO2
       SLP102 T02221039

KDRO 252322Z 2600/2624 24008G16KT P6SM SKC
     FM260200 28007KT P6SM FEW250
     FM260500 03005KT P6SM SKC
     FM261500 10010KT P6SM FEW250
     FM261800 19018G29KT P6SM SCT120
METAR KDRO 260053Z AUTO 21009KT 10SM CLR 20/M06 A2999 RMK AO2 SLP108
       T02001061
METAR KDRO 252353Z AUTO 25010G16KT 10SM CLR 21/M06 A3000 RMK AO2 SLP115
       T02061061 10217 20178 58010
METAR KDRO 252253Z AUTO 24008G16KT 10SM CLR 21/M06 A3001 RMK AO2 SLP117
       T02111061

METAR KPSO 260115Z AUTO 26009KT 10SM CLR 19/M07 A3006 RMK AO2
       T01891068
METAR KPSO 260055Z AUTO 26006KT 10SM CLR 19/M07 A3006 RMK AO2
       T01911071
METAR KPSO 260035Z AUTO 25011G14KT 10SM CLR 19/M06 A3005 RMK AO2
       T01941063

METAR KCPW 260106Z AUTO 20015G22KT 10SM CLR 05/M09 A3032 RMK AO2
METAR KCPW 260047Z AUTO 20014G24KT 10SM CLR 05/M09 A3032 RMK AO2
METAR KCPW 260029Z AUTO 22016G25KT 10SM CLR 06/M09 A3032 RMK AO2 LTG
       DSNT W

KALS 252343Z 2600/2624 23020G30KT P6SM FEW100 SCT200
     FM260100 22012G22KT P6SM FEW100 SCT200
     FM260500 19010KT P6SM SKC
     FM261600 18013KT P6SM SKC
     FM261900 20020G30KT P6SM SCT150 BKN200
METAR KALS 260052Z AUTO 22013KT 10SM CLR 20/M12 A3004 RMK AO2 PK WND
       24026/0018 SLP109 T02001117
METAR KALS 252352Z AUTO 23013G26KT 10SM CLR 22/M13 A3003 RMK AO2 PK WND
       27034/2259 SLP107 T02171128 10228 20200 56005
METAR KALS 252252Z AUTO 23015G24KT 10SM CLR 22/M13 A3004 RMK AO2 PK WND
       20030/2204 SLP112 T02171128

Sunrise/Sunset for 05/25/2019
Vail    - 05:43:20 MDT / 20:21:25 MDT
Durango - 05:55:46 MDT / 20:21:04 MDT
Alamosa - 05:47:19 MDT / 20:13:34 MDT

Grand Junction (KGJX) 05/26/19 01:15 UTC
Radar VAD winds      Height      Dir/Spd(kt)
                  10400 FT MSL...214/017

Grand Junction Aviation Discussion
Issued at 2332 UTC Saturday, May 25, 2019

.AVIATION...(For the 00Z TAFS through 00Z Sunday evening)
Issued at 532 PM MDT Sat May 25 2019
VFR conditions expected the next 24 hours with limited moisture
for making lower cloud decks. The main concern will be gusty
southerly winds that will be developing ahead of the next
approaching storm system to the West. Areas of LLWS are likely
along with ridgetop and mountain wave turbulence. As heating takes
place on Sunday expect most TAF sites to see gusts over 25 mph in
the afternoon.


* * * * * Arizona * * * * *

KPGA 260059Z 2601/2624 21006KT P6SM SKC
     FM261500 17012KT P6SM SKC
METAR KPGA 260053Z AUTO 23007KT 200V270 10SM CLR 25/M08 A2983 RMK AO2
        SLP049 T02501083 TSNO
METAR KPGA 252353Z AUTO VRB06KT 10SM CLR 25/M10 A2984 RMK AO2 SLP056
       T02501100 10256 20194 56016 TSNO
METAR KPGA 252253Z AUTO 21011G17KT 10SM CLR 25/M09 A2985 RMK AO2 SLP058
        T02501094 TSNO

METAR KRQE 260053Z AUTO 23013G26KT 10SM CLR 21/M11 A3000 RMK AO2 PK
        WND 22027/0024 SLP087 T02061111
METAR KRQE 252353Z AUTO 22014G28KT 10SM CLR 22/M09 A3000 RMK AO2 PK WND
       22028/2344 SLP088 T02171094 10228 20183 55007
METAR KRQE 252253Z AUTO 23020G25KT 10SM CLR 23/M09 A3000 RMK AO2 SLP084
       T02281094

Flagstaff (KFSX) 05/26/19 01:11 UTC
Radar VAD winds      Height      Dir/Spd(kt)
                  13000 FT MSL...191/027
                  12000 FT MSL...185/022
                  11000 FT MSL...193/022
                  10000 FT MSL...200/021
                  10000 FT MSL...201/015
                   9200 FT MSL...201/016
                   9000 FT MSL...205/020
                   8500 FT MSL...204/017
                   8100 FT MSL...204/024
                   8000 FT MSL...206/021
                   7800 FT MSL...210/021

Flagstaff Aviation Discussion
Issued at 2141 UTC Saturday, May 25, 2019

.AVIATION...For the 00Z package...VFR conditions will continue under
mostly clear skies. Southwest winds 10-20 kts gusting to 20-30 kts
will decrease after 01Z. Southwest winds will increase and become
stronger 14-16Z. Sunday afternoon wind gusts could be 30-
40kts...locally even higher. Aviation discussion not updated for
TAF amendments.


* * * * * Utah * * * * *

KSLC 260056Z 2601/2706 15015G25KT P6SM VCSH SCT040 BKN080
     FM260300 15008KT P6SM SCT080 BKN150
     FM261800 17015G25KT P6SM SCT080 BKN150
METAR KSLC 260054Z 17016KT 10SM FEW075 SCT120 BKN240 21/03 A2980 RMK AO2
       SLP054 SH DSNT W-N T02060033 VISNO NW RNWY
METAR KSLC 252354Z 17021G28KT 10SM FEW024 SCT070 BKN110 BKN220 19/04
       A2981 RMK AO2 PK WND 17034/2310 RAB18E27 SLP059 SH DSNT N AND
       E AND W P0000 60000 T01940044 10228 20183 56007 VISNO NW
       RNWY
METAR KSLC 252254Z 17010KT 10SM FEW040 SCT085 BKN110 21/03 A2982 RMK AO2
       PK WND 20032/2229 RAB31E41 SLP062 VCSH P0000 T02060033 VISNO
       NW RNWY

KVEL 252322Z 2600/2624 19003KT P6SM FEW120
     FM260600 24007KT P6SM FEW250
     FM261700 17006KT P6SM BKN250
     FM262000 19009G17KT P6SM OVC250
METAR KVEL 260053Z AUTO 20011G20KT 10SM FEW085 19/01 A2989 RMK AO2
       SLP085 T01890006
METAR KVEL 252353Z AUTO VRB03KT 10SM CLR 19/02 A2990 RMK AO2 SLP090
       T01940022 10200 20150 56013
METAR KVEL 252253Z AUTO 19003KT 10SM CLR 19/02 A2992 RMK AO2 SLP097
       T01890022

METAR KPUC 260053Z AUTO 31003KT 10SM CLR 17/03 A2992 RMK AO2 SLP101
       T01670028
METAR KPUC 252353Z AUTO 24005KT 10SM SCT095 SCT110 16/04 A2993 RMK AO2
       SLP109 60000 T01610044 10167 20128 58008

KCNY 252322Z 2600/2624 20011G24KT P6SM SKC
     FM260300 24006KT P6SM SKC
     FM260600 14005KT P6SM FEW200
     FM261800 19015G23KT P6SM SCT250
METAR KCNY 260053Z AUTO 26012G17KT 10SM CLR 23/M08 A2984 RMK AO2 SLP069
        T02281083
METAR KCNY 252353Z AUTO 23011G23KT 10SM CLR 23/M08 A2985 RMK AO2 SLP073
       T02331083 10244 20183 58011
METAR KCNY 252253Z AUTO 20011G24KT 10SM CLR 23/M10 A2987 RMK AO2 PK
        WND 21026/2234 SLP079 T02331100


Salt Lake City (KMTX) 05/26/19 01:13 UTC
Radar VAD winds      Height      Dir/Spd(kt)
                  50000 FT MSL...352/004
                  45000 FT MSL...360/004
                  40000 FT MSL...011/005
                  39600 FT MSL...356/004
                  35000 FT MSL...359/004
                  35000 FT MSL...355/003
                  30600 FT MSL...003/004
                  28000 FT MSL...199/051
                  27200 FT MSL...129/013
                  26000 FT MSL...204/032
                  25000 FT MSL...204/032
                  24000 FT MSL...188/028
                  23900 FT MSL...162/014
                  22000 FT MSL...184/018
                  20500 FT MSL...182/020
                  20000 FT MSL...190/022
                  19000 FT MSL...187/023
                  18000 FT MSL...182/026
                  17800 FT MSL...194/026
                  17000 FT MSL...199/027
                  16000 FT MSL...196/028
                  15500 FT MSL...192/027
                  15000 FT MSL...198/031
                  14000 FT MSL...195/026
                  13700 FT MSL...201/025
                  13000 FT MSL...206/027
                  12100 FT MSL...204/022
                  12000 FT MSL...202/023
                  11000 FT MSL...201/019
                  10900 FT MSL...205/018
                  10000 FT MSL...210/021
                   9900 FT MSL...226/018
                   9000 FT MSL...219/017
                   9000 FT MSL...223/021
                   8300 FT MSL...236/017
                   8000 FT MSL...234/018
                   7600 FT MSL...254/025
                   7100 FT MSL...255/015
                   7000 FT MSL...246/016
                   6900 FT MSL...256/015

Salt Lake City Aviation Discussion
Issued at 2237 UTC Saturday, May 25, 2019

.AVIATION...The SLC terminal will see VFR conditions through the
evening, with cigs expected to remain above 6000 feet AGL. Gusty
southerly winds will weaken this evening, but there is a 30 percent
chance of periods of erratic winds due to showers in the vicinity of
the terminal.


* * * * * Wyoming * * * * *

KEVW 260055Z 2601/2624 22012G20KT P6SM VCSH SCT040 BKN080
     FM260300 12006KT P6SM SCT080 BKN150
     FM261800 17014G24KT P6SM SCT080 BKN150=
METAR KEVW 260053Z AUTO 20019G25KT 10SM SCT055 BKN070 OVC090 12/01 A2996
       RMK AO2 SLP098 T01170006
METAR KEVW 252353Z AUTO 20014G23KT 10SM FEW055 SCT120 13/01 A2995 RMK
        AO2 PK WND 21041/2308 SLP089 60001 T01330006 10144 20100 58006
METAR KEVW 252253Z AUTO 22017G20KT 10SM SCT060 BKN080 13/01 A2995 RMK
       AO2 RAB38E47 SLP092 P0000 T01330006

KRKS 252326Z 2600/2624 20014G24KT P6SM VCSH SCT070 BKN100
     FM260200 21009KT P6SM SCT080
     FM260600 14007KT P6SM FEW070
     FM261800 18015G23KT P6SM SCT090 BKN150
METAR KRKS 260054Z AUTO 20018KT 10SM SCT120 14/M04 A2995 RMK AO2 PK WND
       19027/0020 SLP104 T01391039 TSNO
METAR KRKS 252354Z AUTO 19020G26KT 10SM FEW080 16/M03 A2995 RMK AO2 PK
       WND 21027/2308 SLP101 T01611033 10167 20128 56008 TSNO
METAR KRKS 252254Z AUTO 20019G28KT 10SM FEW085 17/M03 A2996 RMK AO2 PK
       WND 20029/2236 SLP105 T01671028 TSNO

KRWL 252320Z 2600/2624 21012G22KT P6SM BKN090
     FM260200 19008KT P6SM FEW100
     FM260700 VRB05KT P6SM FEW020
METAR KRWL 260053Z AUTO 21006KT 10SM SCT110 16/M02 A2998 RMK AO2 SLP093
       T01611022
METAR KRWL 252353Z AUTO 21011KT 10SM SCT110 17/M02 A2998 RMK AO2 SLP098
       T01721022 10178 20144 56010
METAR KRWL 252253Z AUTO 22017G22KT 10SM FEW110 17/M04 A3000 RMK AO2
       SLP102 T01671039

KLAR 252320Z 2600/2624 19011G21KT P6SM SKC
     FM260200 15010KT P6SM SCT100=
METAR KLAR 260053Z AUTO 15019G25KT 10SM CLR 15/02 A3000 RMK AO2 PK WND
       13027/0013 SLP089 T01500017
METAR KLAR 252353Z AUTO 15022G29KT 10SM CLR 17/02 A3000 RMK AO2 PK WND
       14029/2337 SLP099 T01670017 10183 20150 58007
METAR KLAR 252253Z AUTO 15017G21KT 10SM FEW120 17/01 A3001 RMK AO2
       SLP092 T01720011

KCYS 252320Z 2600/2624 18015G25KT P6SM SKC
     FM260300 14012KT P6SM SCT100
     FM260900 17008KT 1/2SM FG OVC005
     FM261400 17010KT 5SM BR OVC020
METAR KCYS 260053Z 16018KT 10SM CLR 18/01 A2998 RMK AO2 SLP096
       T01830011
METAR KCYS 252353Z 17017G22KT 10SM CLR 19/01 A2999 RMK AO2 PK WND
       16026/2301 SLP103 T01890006 10194 20161 58012
METAR KCYS 252253Z 16013G21KT 10SM CLR 19/00 A3000 RMK AO2 SLP103
       T01940000

Riverton (KRIW) 05/26/19 01:22 UTC
Radar VAD winds      Height      Dir/Spd(kt)
                  20000 FT MSL...206/020
                  19000 FT MSL...213/019
                  18000 FT MSL...201/022
                  17000 FT MSL...219/023
                  16800 FT MSL...219/019
                  16000 FT MSL...210/021
                  15000 FT MSL...214/024
                  14000 FT MSL...198/024
                  13000 FT MSL...222/029
                  12000 FT MSL...206/019
                  10000 FT MSL...179/017
                   7000 FT MSL...156/005
                   6200 FT MSL...184/007
                   6000 FT MSL...190/006
                   6000 FT MSL...180/005

Cheyenne (KCYS) 05/26/19 01:21 UTC
Radar VAD winds      Height      Dir/Spd(kt)
                  21000 FT MSL...221/036
                  11000 FT MSL...170/025
                  10500 FT MSL...173/028
                  10000 FT MSL...170/026
                   9500 FT MSL...168/027
                   9000 FT MSL...170/027
                   8600 FT MSL...171/026
                   8000 FT MSL...167/026
                   7900 FT MSL...166/026
                   7200 FT MSL...170/026
                   7000 FT MSL...169/024
                   6700 FT MSL...165/024
                   6500 FT MSL...165/021

Riverton Aviation Discussion
Issued at 2112 UTC Saturday, May 25, 2019

.AVIATION...For the 00Z TAFS through 00Z Monday
All terminals to be VFR through 00Z/Monday. Convection continues
across west and northwest Wyoming Sunday afternoon. Thunderstorms
have been isolated in nature with mostly showers over this region.
KJAC remains the terminal most likely to see a shower or storm
through about 01Z-02Z/Sunday. Will make adjustments as necessary
toward issuance time as to possible shower impacts at KBPI, KPNA,
and KCOD. Even with convection conditions should remain VFR. Enough
moisture and instability will be present to allow for lingering
showers through much of tonight northwest of a KJAC to KCOD line. We
will again see VCSH at KJAC and KCOD Sunday afternoon as convection
forms over the higher terrain of northwest Wyoming and moves into
the valleys. Coverage and intensity of the Sunday afternoon
convection should be less than today. Other terminals will be dry.
KRKS should see diurnally-driven southerly wind 15-25kts Sunday
afternoon, with most other terminals less than 12kts. Mountain tops
along and west of the Continental Divide will be occasionally
obscured due to convection.

Cheyenne Aviation Discussion
Issued at 2338 UTC Saturday, May 25, 2019

.AVIATION...(For the 00Z TAFS through Sunday afternoon)
Issued at 535 PM MDT Sat May 25 2019
VFR conditions will continue through 06z tonight with locally breezy
conditions and a few isolate showers or thundershowers this evening.
CIGS and VIS will decrease between 05z to 09z tonight at KBFF, KCYS,
KSNY, and even KAIA as winds shift into the east or southeast and
increasing llvl moisture advection is likely.  KCDR will likely see
MVFR CIGS, but it should hold off to around sunrise Sunday. Strong
to severe thunderstorms are expected to develop along and east of
the I-25 corridor Sunday afternoon and evening, but timing is still
too uncertain.  May include some VCTS in the 06z TAF package
tonight.


* * * * * Nebraska * * * * *

METAR KIBM 260115Z AUTO 14012KT 10SM CLR 20/03 A2997 RMK AO2
       T01980029
METAR KIBM 260055Z AUTO 14012KT 10SM CLR 21/03 A2996 RMK AO2
       T02050029
METAR KIBM 260035Z AUTO 13015KT 10SM CLR 21/03 A2996 RMK AO2
       T02100028

KSNY 252320Z 2600/2624 13014KT P6SM FEW100
     FM260600 13013KT 4SM BR BKN005
     FM261700 10010KT P6SM BKN015
METAR KSNY 260053Z AUTO 12012KT 10SM CLR 20/05 A2996 RMK AO2 SLP119
       T02000050
METAR KSNY 252353Z AUTO 13012KT 10SM CLR 21/04 A2997 RMK AO2 SLP123
       T02110044 10222 20194 56012
METAR KSNY 252253Z AUTO 14008KT 10SM CLR 22/04 A2998 RMK AO2 SLP124
       T02170044

METAR KOGA 260115Z AUTO 11011G16KT 10SM CLR 23/07 A2996 RMK AO2
       T02270071
METAR KOGA 260055Z AUTO 12011G16KT 10SM CLR 24/06 A2995 RMK AO2
       T02350063
METAR KOGA 260035Z AUTO 10011KT 10SM CLR 24/05 A2995 RMK AO2
       T02400053

METAR KIML 260053Z AUTO 11013KT 10SM CLR 22/07 A2996 RMK AO2 SLP129
       T02220072
METAR KIML 252353Z AUTO 12014KT 10SM CLR 23/06 A2994 RMK AO2 SLP122
       T02330056 10256 20228 57012
METAR KIML 252253Z AUTO 11014KT 10SM CLR 24/04 A2996 RMK AO2 SLP132
       T02440044

KMCK 252320Z 2600/2624 08010G16KT P6SM FEW250
     FM260600 10007KT P6SM VCSH BKN015
     FM261200 09006KT 6SM BR OVC007
     FM261500 12009KT P6SM OVC005
     FM261900 12010KT P6SM BKN015
     FM262200 14010G16KT P6SM VCSH BKN050
METAR KMCK 260053Z AUTO 10009KT 10SM CLR 21/14 A2995 RMK AO2 SLP131
       T02110144
METAR KMCK 252353Z AUTO 10012KT 10SM FEW046 23/14 A2994 RMK AO2 SLP126
       T02330139 10250 20217 56008
METAR KMCK 252253Z AUTO 09009G20KT 10SM CLR 24/12 A2995 RMK AO2 SLP129
       T02440122

North Platte (KLNX) 05/26/19 01:19 UTC
Radar VAD winds      Height      Dir/Spd(kt)
                   9000 FT MSL...144/023
                   8000 FT MSL...133/013
                   7500 FT MSL...132/022
                   7000 FT MSL...131/021
                   6400 FT MSL...130/021
                   6000 FT MSL...128/021
                   5600 FT MSL...128/023
                   5000 FT MSL...127/022
                   4800 FT MSL...126/022
                   4100 FT MSL...124/022
                   4000 FT MSL...126/021
                   3700 FT MSL...124/021
                   3400 FT MSL...125/020

North Platte Aviation Discussion
Issued at 2332 UTC Saturday, May 25, 2019

.AVIATION...(For the 00Z TAFS through 00Z Sunday evening)
Issued at 632 PM CDT Sat May 25 2019
VFR conditions this evening transitioning to MVFR and eventually
to LIFR at KLBF by Sunday morning.
Weak convection moving across the far northern Panhandle currently
which most CAMs including the HRRR have a decent handle on. This
driven by weak convergence and flow around the Black Hills and
higher terrain to the west. Low level moisture is lacking in this
area and wouldn`t expect continuation past sunset and not looking
like it will make it to KVTN. Lower cloud deck moves in overnight
in the south in association with a larger area of convection to
the south and northward moving warm front. Have introduced light
fog at KLBF Sunday morning based on short range model soundings
and larger scale pattern association. Better TSRA chances after
the end of the forecast period.


* * * * * Kansas * * * * *

KGLD 252320Z 2600/2624 10010G16KT P6SM SCT120 BKN200
     FM260600 13010KT P6SM VCSH SCT005 BKN030
     FM260900 13008KT P6SM OVC008
     FM261200 13006KT 2SM BR OVC004
     FM261500 15009KT P6SM BKN012
     FM262000 16010G18KT P6SM VCSH BKN060
METAR KGLD 260053Z AUTO 10015G23KT 10SM CLR 22/15 A2993 RMK AO2 SLP107
       T02170150
METAR KGLD 252353Z AUTO 11015G21KT 10SM CLR 22/14 A2993 RMK AO2 SLP112
       T02170144 10244 20217 58008
METAR KGLD 252253Z AUTO 09012G21KT 10SM FEW043 SCT055 23/16 A2995 RMK
       AO2 SLP115 T02280156

KGCK 260110Z 2601/2624 13013G20KT P6SM BKN100
     FM260600 14010KT P6SM BKN030
     FM261000 18010KT P6SM BKN005
     FM261600 20015KT P6SM BKN060
METAR KGCK 260054Z 12015G25KT 10SM BKN110 18/15 A2991 RMK AO2 PK WND
       11026/0037 WSHFT 2341 RAB07E16 SLP107 P0000 T01830150 $
SPECI KGCK 252357Z COR 36013KT 10SM BKN027 BKN043 OVC120 15/13 A3000 RMK
       AO2 WSHFT 2341 LTG DSNT N AND NE CIG 017V033 T01500133 $
SPECI KGCK 260004Z 01007KT 10SM SCT027 BKN044 OVC090 16/14 A2998 RMK AO2
       WSHFT 2341 LTG DSNT N AND NE T01560139 $

METAR KLBL 260056Z AUTO 10009KT 10SM CLR 20/15 A2996 RMK AO2 SLP123
       T02000150
METAR KLBL 252356Z AUTO 16015KT 10SM CLR 21/15 A2988 RMK AO2 RAE00
       PRESRR SLP096 P0000 60014 T02060150 10283 20156 58015
METAR KLBL 252256Z AUTO 15017KT 10SM -RA FEW030 SCT050 SCT065 17/16
       A2989 RMK AO2 PK WND 20048/2209 TSE42 PRESFR SLP102 P0013
       T01670156

METAR KEHA 260115Z AUTO 10012KT 10SM CLR 22/16 A2994 RMK AO2
       T02160163
METAR KEHA 260055Z AUTO 12012KT 10SM CLR 22/16 A2993 RMK AO2
       T02240163
METAR KEHA 260035Z AUTO 14011KT 10SM CLR 23/16 A2990 RMK AO2
       T02300161

Goodland (KGLD) 05/26/19 01:21 UTC
Radar VAD winds      Height      Dir/Spd(kt)
                   9000 FT MSL...153/017
                   8100 FT MSL...150/022
                   8000 FT MSL...151/022
                   7000 FT MSL...132/023
                   7000 FT MSL...133/023
                   6200 FT MSL...120/025
                   6000 FT MSL...119/025
                   5400 FT MSL...113/025
                   5000 FT MSL...111/024
                   4700 FT MSL...108/024
                   4300 FT MSL...097/023
                   4000 FT MSL...099/021
                   4000 FT MSL...098/021

Dodge City (KDDC) 05/26/19 01:19 UTC
Radar VAD winds      Height      Dir/Spd(kt)
                  30000 FT MSL...210/060
                  28000 FT MSL...230/075
                  26000 FT MSL...232/060
                  25000 FT MSL...237/060
                  24000 FT MSL...236/061
                  23200 FT MSL...056/004
                  22000 FT MSL...240/057
                  20000 FT MSL...248/059
                  19000 FT MSL...250/058
                  18000 FT MSL...252/052
                  17000 FT MSL...248/055
                  16500 FT MSL...289/008
                  16000 FT MSL...258/028
                  15000 FT MSL...240/021
                  14000 FT MSL...245/017
                  11000 FT MSL...237/014
                  10000 FT MSL...231/014
                   9600 FT MSL...177/019
                   9000 FT MSL...184/014
                   8200 FT MSL...155/023
                   8000 FT MSL...186/016
                   7000 FT MSL...164/015
                   6900 FT MSL...164/015
                   5000 FT MSL...130/024
                   5000 FT MSL...084/013
                   4200 FT MSL...100/010
                   4000 FT MSL...087/010
                   3200 FT MSL...078/007

Goodland Aviation Discussion
Issued at 2315 UTC Saturday, May 25, 2019

.AVIATION...(For the 00Z TAFS through 00Z Monday evening)
Issued at 515 PM MDT Sat May 25 2019
Both terminals will be on the north side of a frontal boundary
for much of the forecast period. This front will transition over
the region after 12z Sunday...increasing the chances for
precipitation.
For KGLD...VFR skies thru 06z Sunday...then MVFR ceilings/vcsh
thru 09z. From 09z-15z IFR ceilings around OVC004-008 with IFR
fog from 12z-15z. Conditions increase to MVFR from 15z-20z
Sunday...then from 20z onward...VFR with vcsh. Will keep as such
due to low confidence in timing so far into the forecast
period...but will trend to vcts/tsra with the next issuance/two.
For KMCK...VFR skies thru 06z Sunday...then MVFR ceilings from
06z-12z w/ vcsh. IFR skies around OVC005-009 from 12z-19z...then
a quick increase to MVFR with some patchy fog from 12z-15z.
Finally VFR from 22z Sunday onward. Will keep as such due to low
confidence in timing so far into the forecast period...but will
trend to vcts/tsra with the next issuance/two.
Winds...a general ESE direction for both taf sites around
5-15kts. Strongest winds will occur before 06z Sun...and after
20z-22z.

Dodge City Aviation Discussion
Issued at 2245 UTC Saturday, May 25, 2019

.AVIATION...(For the 00Z TAFS through 00Z Sunday evening)
Issued at 534 PM CDT Sat May 25 2019
Thunderstorms have pushed across the Kansas state line from the
Texas and Oklahoma panhandles affecting LBL currently and soon DDC
by start of the period and HYS by 01Z. Storms look to stay east of
GCK and not affect the station. VFR conditions to start and
thunderstorms pushing east of all locations by 02-03Z. By 06Z,
near MVFR ceilings as stratus pushes across the CWA becoming IFR
by 10Z for all locations with more of a southeast low level flow.
After 16Z, stratus will lift out as winds pick up to 15kts out of
the south to southwest being more of a downsloping wind coupled
with daytime heating as these winds mix to the surface. Expect
storms to redevelop towards the end of the period if not just
after the end of the period as storms push in across from eastern
Colorado and northeastern New Mexico first affecting LBL and GCK,
then DDC and HYS that should be reflected in the next TAF cycle.
Stay tuned for updates and amendments as storms push across the
area this evening and early into the night.


* * * * * Texas/Oklahoma * * * * *

KGUY 252320Z 2600/2624 16015KT P6SM SCT100
     FM260300 17009KT P6SM SCT050
     FM261300 19009KT P6SM BKN250
     FM261500 19015G25KT P6SM SCT025
     FM261900 18015G25KT 6SM SHRA VCTS OVC035CB=
METAR KGUY 260053Z AUTO 11007KT 10SM CLR 21/15 A2990 RMK AO2 SLP087
       T02110150
METAR KGUY 252353Z AUTO 16011KT 10SM CLR 21/13 A2987 RMK AO2 SLP079
       60008 T02110133 10283 20167 58006
METAR KGUY 252253Z AUTO 15010G18KT 10SM CLR 21/14 A2987 RMK AO2 PK WND
       17026/2206 WSHFT 2155 RAE30 TSE02 SLP081 P0006 T02060144

KDHT 252320Z 2600/2624 16015G25KT P6SM SCT100
     FM260300 18013KT P6SM OVC150
     FM261400 18015KT P6SM OVC020
     FM261800 18015G25KT P6SM BKN040 PROB30 2618/2624 4SM TSRA
      OVC025CB=
METAR KDHT 260053Z AUTO 15015G24KT 10SM CLR 22/16 A2992 RMK AO2 SLP082
       T02170156
METAR KDHT 252353Z AUTO 15013KT 10SM CLR 23/14 A2991 RMK AO2 SLP079
       60006 T02330144 10278 20167 56017

Amarillo (KAMA) 05/26/19 01:22 UTC
Radar VAD winds      Height      Dir/Spd(kt)
                  30000 FT MSL...201/041
                  26000 FT MSL...217/060
                  25000 FT MSL...219/044
                  20000 FT MSL...240/055
                  13000 FT MSL...272/015
                  12000 FT MSL...255/026
                  11000 FT MSL...241/022
                  10000 FT MSL...230/025
                   9000 FT MSL...217/019
                   8000 FT MSL...215/023
                   7000 FT MSL...211/026
                   6200 FT MSL...192/026
                   6000 FT MSL...205/034
                   5400 FT MSL...200/041
                   5000 FT MSL...196/035
                   4700 FT MSL...186/034
                   4300 FT MSL...179/029
                   4000 FT MSL...161/025

Amarillo Aviation Discussion
Issued at 2346 UTC Saturday, May 25, 2019

.AVIATION...
For the 00z TAFs...
Threat for additional thunderstorms at terminals has been greatly
reduced, with redevelopment limited to AMA vicinity for the next
hour.
VFR conditions expected through the night as southeast to south
surface winds prevail.  MVFR ceilings expected to develop after
sunrise at AMA and DHT, continuing until around 18z Sunday.
Uncertain if ceilings will advance as far north as GUY.
Scattered to numerous thunderstorms expected to develop Sunday
afternoon and evening.  Potential for strong to severe
thunderstorms exists Sunday afternoon and evening.
Cockrell


* * * * * New Mexico * * * * *

KFMN 252337Z 2600/2624 20011KT P6SM SKC
     FM260400 08006KT P6SM SKC
     FM261400 14013KT P6SM SKC
     FM261700 19015G25KT P6SM FEW130
METAR KFMN 260053Z 25015KT 10SM CLR 25/M11 A2990 RMK AO2 SLP080
       T02501106
METAR KFMN 252353Z 25015G18KT 10SM CLR 26/M11 A2990 RMK AO2 SLP081
       T02611106 10261 20206 56017
METAR KFMN 252253Z COR 18004KT 10SM CLR 25/M09 A2991 RMK AO2 SLP087
       T02501094

METAR KSKX 260056Z AUTO 23016KT 10SM CLR 21/M08 A3005 RMK AO2 SLP131
       T02111083 $
METAR KSKX 252356Z AUTO 23016G27KT 10SM CLR 22/M08 A3005 RMK AO2 PK WND
       23029/2322 SLP137 T02221083 10233 20211 55006 $
METAR KSKX 252256Z AUTO 23023G31KT 10SM CLR 23/M09 A3005 RMK AO2 PK WND
       25032/2221 SLP136 T02281094 $

KLVS 252337Z 2600/2624 23020G28KT P6SM SKC
     FM260300 20010KT P6SM SKC
     FM261500 20018G28KT P6SM SKC
     FM261900 21028G40KT P6SM FEW130
METAR KLVS 260053Z AUTO 22015G27KT 10SM CLR 22/M07 A3002 RMK AO2 PK WND
       23033/0002 SLP078 T02221072
METAR KLVS 252353Z AUTO 22025G34KT 10SM CLR 24/M08 A3002 RMK AO2 PK WND
       21034/2255 SLP076 T02391078 10250 20222 56010

METAR KRTN 260053Z AUTO 20018G27KT 10SM CLR 24/M06 A2993 RMK AO2 PK WND
       20028/0005 SLP064 T02391061
METAR KRTN 252353Z AUTO 19022G31KT 10SM CLR 26/M07 A2993 RMK AO2 PK WND
       20034/2302 SLP066 T02561067 10272 20239 56009
METAR KRTN 252253Z AUTO 20023G31KT 10SM CLR 26/M07 A2993 RMK AO2 PK WND
       18035/2205 SLP067 T02611072

METAR KCAO 260055Z AUTO 15019G23KT 10SM CLR 21/14 A2992 RMK AO2 PK WND
       15026/0040 SLP087 T02110139
METAR KCAO 252355Z AUTO 16017KT 10SM CLR 22/12 A2991 RMK AO2 SLP081
       60000 T02220122 10272 20189 56014

Albuquerque (KABX) 05/26/19 01:16 UTC
Radar VAD winds      Height      Dir/Spd(kt)
                  15000 FT MSL...274/013
                  14000 FT MSL...251/021
                  13800 FT MSL...251/025
                  13000 FT MSL...243/030
                  12100 FT MSL...245/020
                  12000 FT MSL...226/022
                  11000 FT MSL...229/023
                  10400 FT MSL...234/026
                  10000 FT MSL...227/027
                   9000 FT MSL...220/026
                   8700 FT MSL...232/027
                   8000 FT MSL...219/027
                   7000 FT MSL...218/029
                   7000 FT MSL...228/027
                   6900 FT MSL...218/028
                   6300 FT MSL...219/027

Albuquerque Aviation Discussion
Issued at 2347 UTC Saturday, May 25, 2019

.AVIATION...
00Z TAF CYCLE
Southwest winds will taper off after sunset at all terminals while a
dryline shifts back to the west across far eastern NM. Model guidance
shows another deck of low cigs developing aft 08Z along and east of a
line from KROW to KTCC and KCAO. A few SHRA/TSRA may also redevelop
in this area overnight which would lead to brief reductions in vsbys
and cigs near heavier precip. Southwest winds will become the focus
for central and western NM Sunday with widespread gusts of 35 to 45
kts. Meanwhile, the dryline is expected to activate Sunday afternoon
over eastern NM with an elevated threat for significant severe storms.
Guyer

* * * * * Winds and Temperatures Aloft Forecasts * * * * *

DATA BASED ON 251200Z
VALID 251800Z   FOR USE 1700-2100Z. TEMPS NEG ABV 24000
FT  3000    6000   9000    12000   18000   24000  30000  34000  39000
SLC      1708    1817+04 1920-04 1919-17 2030-27 214144 224953 224856
BCE                      1819-04 2133-16 2128-26 233143 224051 225156
LND              2010+05 2216-03 2215-17 2326-28 234044 244754 245257
RKS              1815    1917-03 2019-17 2221-27 222844 233553 234856
GJT              1909+07 1919-01 2143-16 2239-27 225043 224851 235355
FMN              1807+09 1917+01 2041-15 2146-27 225543 226650 237254
ABQ              1919+11 2126+03 2149-13 2154-26 227441 228148 238653
MBW              2109    2011-02 2230-16 2329-27 233144 244152 245056
DEN              1518+06 2122+00 2347-14 2351-27 235742 236950 236855
PUB              1610+08 2122+02 2255-14 2259-26 227341 237749 237755
ALS                      1921+03 2152-14 2256-26 227142 227749 237754
TCC      1816    2019+12 1821+05 2145-13 2256-24 227339 228547 239254
BFF      1705    2414+04 2425-03 2433-15 2333-27 234243 245751 246056
GLD      0511    2314+09 2323+02 2453-13 2459-26 237740 238049 248455
GCK      2517+16 2324+13 2329+05 2453-13 2359-25 237939 238348 249155
GAG      2222+17 1921+13 2017+06 2331-11 2349-23 227638 238147 249055
AMA      1920    1821+12 1824+06 2345-12 2353-22 227338 237846 238755
---------------------------------------------------------------------

DATA BASED ON 251200Z
VALID 260000Z   FOR USE 2100-0600Z. TEMPS NEG ABV 24000
FT  3000    6000   9000    12000   18000   24000  30000  34000  39000
SLC      1613    1821+06 2025-02 1930-17 2136-27 214944 215753 226257
BCE                      1920-01 2137-17 2146-26 215342 226051 226356
LND              1820+08 1922-01 2324-17 2225-27 233344 244453 235658
RKS              2022    2024+00 2224-17 2231-27 233043 234352 235758
GJT              2111+10 2020+02 2142-16 2245-27 234141 245150 236057
FMN              2214+13 2116+04 2035-15 2146-26 235840 236450 236856
ABQ              2027+15 2128+06 2338-13 2350-25 246139 246948 248255
MBW              9900    2209+01 2236-17 2345-28 244243 253450 244856
DEN              1616+11 1819+03 2331-14 2348-27 244243 244849 245555
PUB              1314+12 1823+05 2242-13 2353-27 245541 245947 235754
ALS                      2124+06 2232-14 2343-26 245340 246149 246657
TCC      2021    2022+14 2024+05 2447-12 2357-23 235938 246846 248154
BFF      1516    1717+07 2123-01 2554-15 2443-26 244543 234752 235755
GLD      1325    1724+10 2022+04 2435-14 2456-26 228239 218747 228356
GCK      2124+16 2342+11 2451+03 2351-11 2154-21 206336 207146 208656
GAG      1737+17 2040+12 2248+06 2356-10 2367-21 236735 246343 246155
AMA      1930    2136+13 2337+08 2440-09 2353-22 235838 246545 247054
---------------------------------------------------------------------

DATA BASED ON 251200Z
VALID 261200Z   FOR USE 0600-1700Z. TEMPS NEG ABV 24000
FT  3000    6000   9000    12000   18000   24000  30000  34000  39000
SLC      1707    2014+05 2020-03 1935-18 2045-29 206646 207053 205551
BCE                      1933-04 1942-15 2054-27 206945 207652 206752
LND              2209+06 2118-01 2139-17 2140-27 215244 216353 216056
RKS              1915    2121+00 2042-17 2148-27 215944 217053 206355
GJT              2012+09 2027+01 2042-17 2152-26 217142 217552 217955
FMN              1816+10 2026+02 2047-14 2056-25 217641 228650 720356
ABQ              2015+10 2132+04 2057-12 2157-24 227239 238947 730255
MBW              1906    2217+02 2236-16 2243-26 225642 226252 226259
DEN              2109+11 2314+04 2232-12 2246-24 225841 226151 237558
PUB              2410+12 2322+04 2245-11 2245-23 226040 226449 238857
ALS                      2231+03 2154-11 2146-23 216240 227048 239156
TCC      2224    2218+13 2026+06 2246-11 2141-20 215436 236546 248856
BFF      1723    2009+09 2007+02 2325-16 2344-25 235842 236451 236659
GLD      1820    2518+14 2316+05 2325-14 2445-23 236040 236849 248757
GCK      2234+16 2522+14 2622+06 2642-13 2347-22 236238 237347 258757
GAG      2231+16 2617+12 2716+06 2542-12 2345-22 246036 256045 258256
AMA      2227    2218+14 2020+06 2137-11 2236-21 235536 246445 258756
---------------------------------------------------------------------

This product is updated automatically at approximately 10, 30 and 50
minutes after each hour, 24 hours per day, 7 days per week.  It may
become unavailable at times due to system outages without prior notice.
Users are advised to check the time at the top of the product to ensure
that it is current.  Furthermore, content and format of the product are
subject to change without prior notice.

Comments and suggestions are welcome and should be directed to one of
the addresses or phone numbers shown at the bottom of this page.  In
order to expedite a response to comments or suggestions, be sure to
mention your interest in the hot-air balloon forecast.



USA.gov is the U.S. government's official web portal to all federal, state and local government web resources and services.